createdAt,value
2022-11-12T00:01:05.395Z,6.25
2022-11-12T00:03:32.540Z,6.95
2022-11-12T00:05:59.292Z,9.38
2022-11-12T00:08:28.062Z,6.63
2022-11-12T00:11:02.508Z,4.72
2022-11-12T00:13:29.272Z,5.25
2022-11-12T00:15:57.062Z,3.05
2022-11-12T00:18:24.154Z,2.30
2022-11-12T00:20:51.258Z,2.42
2022-11-12T00:23:18.060Z,4.75
2022-11-12T00:25:44.909Z,4.20
2022-11-12T00:28:11.722Z,3.55
2022-11-12T00:30:39.527Z,6.43
2022-11-12T00:33:06.958Z,2.70
2022-11-12T00:35:35.137Z,2.08
2022-11-12T00:38:02.012Z,1.08
2022-11-12T00:40:29.226Z,1.60
2022-11-12T00:42:56.392Z,2.40
2022-11-12T00:45:24.253Z,3.33
2022-11-12T00:47:55.923Z,1.63
2022-11-12T00:50:23.117Z,1.80
2022-11-12T00:52:53.081Z,0.88
2022-11-12T00:55:20.107Z,1.40
2022-11-12T00:57:46.896Z,1.35
2022-11-12T01:00:17.501Z,0.85
2022-11-12T01:02:49.372Z,1.38
2022-11-12T01:05:17.776Z,1.20
2022-11-12T01:07:44.825Z,0.85
2022-11-12T01:10:12.230Z,4.43
2022-11-12T01:16:15.820Z,0.40
2022-11-12T01:18:44.043Z,1.40
2022-11-12T01:21:11.115Z,2.63
2022-11-12T01:23:40.712Z,2.70
2022-11-12T01:26:19.238Z,1.98
2022-11-12T01:28:46.158Z,0.95
2022-11-12T01:31:25.344Z,0.95
2022-11-12T01:33:57.686Z,7.55
2022-11-12T01:36:26.236Z,0.90
2022-11-12T01:38:54.291Z,1.15
2022-11-12T01:41:26.975Z,1.42
2022-11-12T01:44:20.522Z,1.08
2022-11-12T01:47:11.971Z,0.80
2022-11-12T01:50:06.940Z,1.30
2022-11-12T01:52:46.683Z,2.00
2022-11-12T01:55:16.996Z,0.47
2022-11-12T01:57:51.702Z,1.10
2022-11-12T02:00:18.594Z,3.75
2022-11-12T02:02:57.502Z,2.10
2022-11-12T02:05:27.438Z,1.15
2022-11-12T02:07:56.261Z,1.65
2022-11-12T02:10:23.582Z,1.52
2022-11-12T02:13:11.342Z,1.20
2022-11-12T02:15:38.930Z,0.50
2022-11-12T02:18:06.339Z,0.57
2022-11-12T02:20:35.623Z,1.38
2022-11-12T02:23:03.819Z,2.28
2022-11-12T02:25:32.571Z,3.05
2022-11-12T02:28:00.958Z,0.40
2022-11-12T02:30:42.382Z,0.73
2022-11-12T02:33:09.197Z,0.93
2022-11-12T02:35:36.271Z,1.00
2022-11-12T02:38:04.250Z,1.83
2022-11-12T02:40:33.688Z,1.77
2022-11-12T02:43:00.864Z,2.65
2022-11-12T02:45:28.143Z,2.47
2022-11-12T02:47:54.924Z,1.88
2022-11-12T02:50:21.799Z,4.43
2022-11-12T02:52:48.583Z,5.65
2022-11-12T02:55:15.502Z,6.32
2022-11-12T02:57:42.270Z,6.68
2022-11-12T03:00:11.944Z,12.60
2022-11-12T03:02:42.947Z,2.80
2022-11-12T03:05:11.217Z,1.48
2022-11-12T03:07:38.781Z,7.32
2022-11-12T03:10:06.561Z,9.48
2022-11-12T03:12:33.567Z,10.73
2022-11-12T03:15:00.378Z,6.32
2022-11-12T03:17:27.148Z,3.63
2022-11-12T03:19:53.925Z,1.50
2022-11-12T03:22:20.707Z,2.95
2022-11-12T03:24:47.684Z,1.77
2022-11-12T03:27:14.436Z,2.97
2022-11-12T03:29:41.322Z,1.85
2022-11-12T03:32:08.088Z,1.20
2022-11-12T03:34:34.855Z,5.03
2022-11-12T03:37:01.658Z,1.15
2022-11-12T03:39:28.448Z,4.00
2022-11-12T03:41:55.210Z,2.28
2022-11-12T03:44:21.954Z,1.08
2022-11-12T03:46:48.770Z,0.80
2022-11-12T03:49:15.648Z,1.58
2022-11-12T03:51:42.527Z,1.92
2022-11-12T03:54:09.350Z,0.60
2022-11-12T03:56:36.131Z,1.85
2022-11-12T03:59:02.953Z,1.17
2022-11-12T04:01:29.699Z,1.17
2022-11-12T04:03:56.710Z,0.60
2022-11-12T04:06:42.671Z,0.55
2022-11-12T04:09:09.593Z,0.75
2022-11-12T04:11:36.438Z,0.40
2022-11-12T04:14:03.291Z,0.38
2022-11-12T04:16:48.386Z,1.20
2022-11-12T04:19:33.777Z,1.75
2022-11-12T04:22:07.642Z,1.20
2022-11-12T04:24:58.754Z,0.63
2022-11-12T04:27:34.166Z,0.98
2022-11-12T04:30:16.375Z,0.60
2022-11-12T04:32:54.767Z,1.33
2022-11-12T04:35:23.578Z,2.75
2022-11-12T04:37:50.590Z,1.15
2022-11-12T04:40:40.026Z,0.90
2022-11-12T04:43:28.204Z,0.47
2022-11-12T04:45:56.474Z,0.95
2022-11-12T04:48:27.930Z,0.77
2022-11-12T04:50:58.985Z,1.52
2022-11-12T04:53:26.315Z,1.15
2022-11-12T04:55:55.186Z,2.65
2022-11-12T04:58:22.759Z,1.42
2022-11-12T05:00:50.714Z,6.90
2022-11-12T05:03:18.299Z,2.30
2022-11-12T05:05:45.095Z,0.82
2022-11-12T05:08:11.880Z,4.38
2022-11-12T05:10:38.696Z,3.80
2022-11-12T05:13:05.515Z,1.20
2022-11-12T05:15:32.302Z,1.70
2022-11-12T05:17:59.141Z,0.70
2022-11-12T05:20:26.109Z,2.13
2022-11-12T05:23:06.249Z,2.97
2022-11-12T05:25:35.846Z,3.55
2022-11-12T05:28:02.699Z,0.75
2022-11-12T05:30:29.512Z,2.22
2022-11-12T05:32:56.353Z,1.05
2022-11-12T05:35:23.149Z,0.40
2022-11-12T05:37:49.865Z,1.73
2022-11-12T05:40:17.723Z,0.70
2022-11-12T05:42:45.309Z,3.70
2022-11-12T05:45:12.315Z,0.75
2022-11-12T05:47:39.108Z,1.20
2022-11-12T05:50:06.381Z,4.10
2022-11-12T05:52:33.132Z,2.70
2022-11-12T05:54:59.877Z,1.70
2022-11-12T05:57:27.925Z,6.07
2022-11-12T05:59:54.688Z,4.88
2022-11-12T06:02:21.837Z,6.70
2022-11-12T06:04:48.655Z,3.70
2022-11-12T06:07:15.474Z,8.43
2022-11-12T06:09:42.249Z,2.92
2022-11-12T06:12:09.061Z,3.53
2022-11-12T06:14:36.083Z,5.03
2022-11-12T06:17:02.964Z,2.08
2022-11-12T06:19:30.192Z,7.18
2022-11-12T06:21:57.052Z,4.18
2022-11-12T06:24:24.092Z,5.22
2022-11-12T06:29:31.705Z,5.68
2022-11-12T06:31:58.442Z,3.50
2022-11-12T06:34:25.260Z,2.03
2022-11-12T06:36:52.402Z,3.05
2022-11-12T06:39:19.507Z,3.22
2022-11-12T06:41:46.351Z,7.50
2022-11-12T06:44:14.683Z,2.05
2022-11-12T06:46:44.865Z,2.10
2022-11-12T06:49:11.752Z,3.42
2022-11-12T06:51:40.112Z,4.93
2022-11-12T06:54:07.098Z,3.50
2022-11-12T06:56:33.912Z,3.63
2022-11-12T06:59:00.796Z,1.33
2022-11-12T07:01:27.652Z,3.00
2022-11-12T07:03:55.012Z,2.42
2022-11-12T07:06:21.765Z,6.45
2022-11-12T07:08:51.640Z,16.83
2022-11-12T07:11:19.599Z,12.00
2022-11-12T07:13:47.466Z,5.22
2022-11-12T07:16:18.614Z,8.10
2022-11-12T07:18:49.739Z,5.93
2022-11-12T07:21:19.390Z,4.47
2022-11-12T07:23:48.086Z,6.47
2022-11-12T07:26:24.164Z,7.22
2022-11-12T07:28:53.809Z,8.93
2022-11-12T07:31:20.920Z,6.43
2022-11-12T07:33:50.547Z,6.90
2022-11-12T07:36:19.328Z,4.68
2022-11-12T07:38:54.848Z,9.48
2022-11-12T07:41:24.972Z,8.30
2022-11-12T07:43:54.073Z,6.95
2022-11-12T07:46:27.423Z,12.00
2022-11-12T07:48:54.984Z,14.57
2022-11-12T07:51:24.487Z,14.02
2022-11-12T07:53:59.508Z,20.48
2022-11-12T07:56:28.408Z,16.08
2022-11-12T07:58:56.398Z,15.32
2022-11-12T08:01:32.642Z,14.50
2022-11-12T08:04:01.645Z,15.70
2022-11-12T08:06:30.221Z,12.68
2022-11-12T08:08:59.073Z,15.30
2022-11-12T08:11:26.588Z,12.10
2022-11-12T08:13:56.283Z,13.57
2022-11-12T08:16:23.956Z,14.40
2022-11-12T08:21:37.418Z,14.27
2022-11-12T08:24:04.761Z,14.32
2022-11-12T08:26:31.564Z,16.63
2022-11-12T08:29:00.125Z,15.57
2022-11-12T08:31:28.442Z,13.90
2022-11-12T08:33:55.325Z,12.70
2022-11-12T08:36:23.599Z,17.25
2022-11-12T08:38:53.779Z,13.80
2022-11-12T08:41:21.670Z,11.45
2022-11-12T08:43:48.638Z,13.35
2022-11-12T08:46:16.637Z,16.27
2022-11-12T08:48:44.082Z,15.00
2022-11-12T08:51:23.826Z,15.93
2022-11-12T08:53:51.595Z,13.70
2022-11-12T08:56:18.777Z,16.95
2022-11-12T08:58:48.221Z,12.05
2022-11-12T09:01:15.357Z,19.30
2022-11-12T09:03:43.595Z,20.42
2022-11-12T09:06:11.469Z,23.02
2022-11-12T09:08:39.963Z,20.20
2022-11-12T09:11:06.932Z,18.02
2022-11-12T09:13:35.773Z,18.98
2022-11-12T09:16:07.603Z,16.90
2022-11-12T09:18:35.318Z,15.55
2022-11-12T09:21:08.407Z,20.10
2022-11-12T09:23:35.957Z,28.55
2022-11-12T09:26:04.654Z,19.23
2022-11-12T09:28:32.177Z,14.32
2022-11-12T09:30:59.181Z,15.85
2022-11-12T09:33:53.923Z,16.88
2022-11-12T09:36:25.536Z,15.77
2022-11-12T09:38:54.690Z,16.27
2022-11-12T09:41:29.768Z,18.45
2022-11-12T09:44:31.731Z,18.33
2022-11-12T09:47:16.079Z,15.30
2022-11-12T09:50:03.825Z,20.15
2022-11-12T09:52:30.908Z,16.58
2022-11-12T09:55:26.902Z,15.85
2022-11-12T09:57:54.240Z,19.75
2022-11-12T10:00:24.089Z,18.00
2022-11-12T10:03:07.876Z,20.23
2022-11-12T10:05:41.069Z,17.63
2022-11-12T10:08:14.917Z,17.10
2022-11-12T10:10:58.665Z,18.80
2022-11-12T10:14:04.859Z,16.52
2022-11-12T10:17:07.472Z,17.50
2022-11-12T10:20:23.523Z,19.27
2022-11-12T10:22:58.697Z,15.65
2022-11-12T10:25:26.098Z,17.67
2022-11-12T10:27:55.985Z,17.67
2022-11-12T10:30:34.704Z,18.40
2022-11-12T10:33:05.818Z,19.40
2022-11-12T10:35:34.690Z,15.30
2022-11-12T10:38:09.045Z,14.25
2022-11-12T10:40:39.912Z,21.17
2022-11-12T10:43:15.920Z,15.77
2022-11-12T10:45:49.691Z,16.92
2022-11-12T10:48:29.249Z,15.05
2022-11-12T10:53:59.147Z,16.38
2022-11-12T11:02:32.554Z,12.77
2022-11-12T11:04:59.712Z,15.18
2022-11-12T11:07:26.860Z,16.73
2022-11-12T11:09:59.415Z,16.30
2022-11-12T11:12:35.148Z,14.27
2022-11-12T11:15:27.200Z,13.95
2022-11-12T11:18:01.076Z,12.02
2022-11-12T11:20:47.924Z,13.57
2022-11-12T11:23:31.779Z,17.25
2022-11-12T11:26:07.027Z,12.48
2022-11-12T11:28:44.166Z,11.32
2022-11-12T11:31:40.409Z,14.27
2022-11-12T11:34:31.245Z,13.82
2022-11-12T11:37:14.953Z,16.40
2022-11-12T11:40:16.185Z,11.02
2022-11-12T11:43:08.058Z,14.95
2022-11-12T11:45:41.017Z,15.02
2022-11-12T11:48:20.027Z,13.48
2022-11-12T11:51:34.312Z,10.38
2022-11-12T11:54:31.947Z,12.68
2022-11-12T11:57:03.009Z,13.57
2022-11-12T12:00:00.757Z,12.10
2022-11-12T12:03:06.282Z,14.40
2022-11-12T12:06:06.278Z,13.02
2022-11-12T12:11:30.704Z,13.27
2022-11-12T12:14:35.570Z,15.32
2022-11-12T12:17:08.331Z,17.02
2022-11-12T12:19:39.109Z,12.85
2022-11-12T12:22:13.889Z,14.15
2022-11-12T12:25:12.913Z,13.52
2022-11-12T12:33:55.388Z,13.13
2022-11-12T12:36:37.588Z,14.75
2022-11-12T12:39:27.346Z,17.83
2022-11-12T12:42:06.354Z,20.33
2022-11-12T12:45:00.714Z,14.85
2022-11-12T12:47:43.797Z,13.38
2022-11-12T12:50:20.273Z,15.88
2022-11-12T12:53:00.670Z,11.85
2022-11-12T12:55:40.626Z,14.70
2022-11-12T12:58:17.628Z,23.65
2022-11-12T13:01:01.136Z,12.95
2022-11-12T13:03:46.042Z,18.30
2022-11-12T13:06:23.780Z,17.98
2022-11-12T13:08:56.314Z,20.52
2022-11-12T13:12:06.998Z,16.80
2022-11-12T13:14:40.177Z,18.48
2022-11-12T13:17:33.655Z,21.90
2022-11-12T13:20:03.840Z,22.77
2022-11-12T13:22:41.070Z,28.05
2022-11-12T13:25:10.994Z,25.23
2022-11-12T13:27:43.670Z,24.08
2022-11-12T13:30:13.965Z,26.10
2022-11-12T13:32:46.691Z,27.20
2022-11-12T13:35:22.461Z,31.70
2022-11-12T13:37:55.801Z,27.13
2022-11-12T13:40:50.882Z,30.40
2022-11-12T13:43:18.990Z,25.13
2022-11-12T13:46:00.426Z,27.85
2022-11-12T13:48:47.988Z,27.30
2022-11-12T13:51:17.340Z,32.88
2022-11-12T13:53:44.660Z,32.45
2022-11-12T13:56:12.569Z,28.63
2022-11-12T13:58:42.112Z,30.20
2022-11-12T14:01:12.146Z,32.72
2022-11-12T14:03:46.692Z,32.20
2022-11-12T14:06:32.486Z,33.83
2022-11-12T14:09:27.523Z,33.42
2022-11-12T14:12:03.829Z,35.72
2022-11-12T14:14:58.321Z,35.75
2022-11-12T14:17:36.349Z,30.80
2022-11-12T14:20:06.174Z,31.90
2022-11-12T14:22:42.164Z,30.58
2022-11-12T14:25:27.060Z,33.17
2022-11-12T14:27:55.870Z,33.53
2022-11-12T14:30:36.106Z,34.53
2022-11-12T14:33:22.418Z,34.30
2022-11-12T14:35:51.642Z,38.88
2022-11-12T14:38:20.735Z,36.88
2022-11-12T14:40:58.733Z,35.97
2022-11-12T14:43:34.347Z,36.85
2022-11-12T14:46:07.343Z,34.13
2022-11-12T14:48:48.741Z,34.67
2022-11-12T14:51:25.587Z,38.65
2022-11-12T14:54:04.419Z,37.45
2022-11-12T14:56:45.312Z,38.67
2022-11-12T14:59:14.622Z,35.75
2022-11-12T15:02:29.419Z,34.30
2022-11-12T15:05:01.668Z,33.97
2022-11-12T15:07:38.692Z,37.45
2022-11-12T15:10:42.238Z,40.05
2022-11-12T15:13:19.090Z,36.67
2022-11-12T15:16:24.943Z,37.65
2022-11-12T15:19:04.521Z,39.25
2022-11-12T15:21:33.939Z,34.72
2022-11-12T15:24:12.938Z,32.58
2022-11-12T15:26:42.463Z,34.85
2022-11-12T15:29:15.345Z,37.03
2022-11-12T15:31:45.405Z,36.67
2022-11-12T15:34:33.569Z,44.67
2022-11-12T15:37:12.703Z,44.50
2022-11-12T15:39:43.112Z,45.10
2022-11-12T15:42:23.742Z,36.45
2022-11-12T15:44:52.211Z,37.72
2022-11-12T15:47:24.637Z,48.72
2022-11-12T15:49:53.578Z,44.20
2022-11-12T15:52:22.313Z,39.80
2022-11-12T15:57:33.585Z,41.65
2022-11-12T16:00:07.830Z,46.75
2022-11-12T16:02:35.857Z,49.10
2022-11-12T16:05:02.834Z,57.15
2022-11-12T16:07:29.724Z,63.42
2022-11-12T16:09:56.970Z,55.70
2022-11-12T16:12:24.413Z,62.20
2022-11-12T16:14:51.335Z,58.70
2022-11-12T16:17:19.064Z,48.65
2022-11-12T16:19:45.845Z,50.15
2022-11-12T16:22:12.817Z,56.33
2022-11-12T16:24:42.914Z,56.28
2022-11-12T16:27:16.339Z,61.38
2022-11-12T16:29:43.329Z,45.50
2022-11-12T16:32:14.518Z,46.55
2022-11-12T16:34:42.359Z,46.93
2022-11-12T16:37:13.178Z,87.90
2022-11-12T16:39:40.389Z,100.05
2022-11-12T16:42:10.312Z,73.82
2022-11-12T16:44:40.723Z,54.80
2022-11-12T16:47:13.144Z,59.47
2022-11-12T16:49:44.051Z,55.45
2022-11-12T16:52:11.810Z,50.28
2022-11-12T16:54:38.760Z,42.92
2022-11-12T16:57:05.558Z,64.03
2022-11-12T16:59:32.378Z,58.72
2022-11-12T17:02:04.533Z,55.25
2022-11-12T17:04:31.452Z,43.00
2022-11-12T17:06:58.274Z,39.10
2022-11-12T17:09:25.959Z,41.60
2022-11-12T17:11:52.818Z,44.25
2022-11-12T17:14:24.293Z,41.65
2022-11-12T17:16:55.800Z,50.55
2022-11-12T17:19:23.260Z,47.85
2022-11-12T17:21:51.118Z,42.97
2022-11-12T17:24:18.359Z,45.92
2022-11-12T17:26:46.636Z,45.00
2022-11-12T17:29:13.596Z,44.90
2022-11-12T17:31:40.343Z,49.90
2022-11-12T17:34:08.144Z,36.08
2022-11-12T17:36:38.083Z,34.65
2022-11-12T17:39:13.581Z,47.70
2022-11-12T17:41:40.564Z,45.90
2022-11-12T17:44:10.606Z,37.80
2022-11-12T17:46:37.578Z,32.95
2022-11-12T17:49:04.991Z,38.85
2022-11-12T17:51:35.239Z,29.67
2022-11-12T17:54:04.428Z,24.27
2022-11-12T17:56:37.068Z,22.90
2022-11-12T17:59:05.228Z,24.92
2022-11-12T18:01:34.326Z,25.85
2022-11-12T18:04:01.973Z,25.88
2022-11-12T18:06:35.601Z,31.50
2022-11-12T18:09:05.167Z,27.90
2022-11-12T18:11:42.865Z,26.23
2022-11-12T18:14:10.188Z,20.40
2022-11-12T18:16:38.070Z,24.50
2022-11-12T18:19:09.557Z,20.27
2022-11-12T18:21:39.011Z,21.70
2022-11-12T18:24:07.423Z,18.75
2022-11-12T18:26:34.380Z,20.98
2022-11-12T18:29:01.284Z,18.85
2022-11-12T18:31:28.751Z,18.98
2022-11-12T18:33:56.153Z,16.27
2022-11-12T18:36:24.782Z,18.75
2022-11-12T18:38:56.194Z,15.95
2022-11-12T18:41:30.777Z,18.05
2022-11-12T18:43:57.881Z,18.63
2022-11-12T18:46:24.816Z,16.63
2022-11-12T18:48:53.082Z,22.85
2022-11-12T18:51:20.318Z,18.00
2022-11-12T18:53:47.308Z,20.15
2022-11-12T18:56:19.554Z,17.10
2022-11-12T18:58:47.189Z,14.50
2022-11-12T19:01:21.263Z,15.68
2022-11-12T19:03:53.558Z,17.80
2022-11-12T19:06:21.253Z,16.00
2022-11-12T19:08:50.088Z,14.45
2022-11-12T19:11:19.156Z,13.85
2022-11-12T19:13:49.774Z,11.35
2022-11-12T19:16:18.840Z,9.05
2022-11-12T19:18:48.204Z,8.40
2022-11-12T19:24:03.045Z,10.43
2022-11-12T19:26:30.109Z,8.35
2022-11-12T19:28:56.992Z,9.07
2022-11-12T19:31:26.211Z,9.35
2022-11-12T19:33:55.417Z,7.88
2022-11-12T19:36:25.469Z,7.20
2022-11-12T19:39:00.024Z,7.43
2022-11-12T19:41:28.379Z,9.85
2022-11-12T19:43:56.182Z,12.55
2022-11-12T19:46:23.037Z,11.07
2022-11-12T19:48:52.789Z,13.93
2022-11-12T19:51:20.153Z,25.25
2022-11-12T19:53:49.589Z,21.65
2022-11-12T19:56:23.142Z,20.88
2022-11-12T19:58:50.428Z,16.85
2022-11-12T20:01:19.114Z,20.90
2022-11-12T20:03:53.343Z,19.40
2022-11-12T20:06:23.336Z,23.92
2022-11-12T20:08:51.047Z,18.35
2022-11-12T20:11:21.940Z,20.00
2022-11-12T20:13:52.040Z,20.75
2022-11-12T20:16:25.518Z,19.65
2022-11-12T20:18:55.864Z,24.15
2022-11-12T20:21:24.119Z,21.98
2022-11-12T20:23:50.950Z,21.40
2022-11-12T20:26:28.973Z,23.27
2022-11-12T20:28:57.266Z,27.10
2022-11-12T20:31:24.538Z,30.02
2022-11-12T20:33:51.590Z,32.45
2022-11-12T20:36:26.818Z,28.10
2022-11-12T20:38:53.656Z,22.40
2022-11-12T20:41:26.573Z,23.60
2022-11-12T20:43:55.320Z,25.23
2022-11-12T20:46:22.178Z,28.23
2022-11-12T20:48:49.041Z,21.45
2022-11-12T20:51:24.768Z,28.83
2022-11-12T20:54:00.468Z,26.35
2022-11-12T20:56:31.173Z,23.40
2022-11-12T20:58:59.446Z,26.02
2022-11-12T21:01:31.144Z,23.15
2022-11-12T21:03:58.416Z,20.52
2022-11-12T21:06:29.193Z,18.52
2022-11-12T21:09:02.239Z,19.58
2022-11-12T21:11:31.635Z,21.52
2022-11-12T21:14:00.433Z,21.05
2022-11-12T21:16:29.165Z,31.38
2022-11-12T21:19:01.087Z,28.80
2022-11-12T21:21:31.592Z,50.80
2022-11-12T21:24:04.439Z,22.98
2022-11-12T21:26:34.729Z,21.88
2022-11-12T21:29:02.918Z,25.65
2022-11-12T21:31:32.762Z,17.80
2022-11-12T21:34:04.103Z,15.57
2022-11-12T21:36:32.421Z,16.17
2022-11-12T21:38:59.235Z,14.93
2022-11-12T21:41:28.191Z,15.80
2022-11-12T21:43:55.436Z,12.40
2022-11-12T21:46:28.227Z,16.83
2022-11-12T21:48:57.019Z,11.27
2022-11-12T21:51:28.928Z,6.25
2022-11-12T21:53:58.358Z,7.57
2022-11-12T21:56:25.504Z,8.35
2022-11-12T21:58:53.944Z,9.88
2022-11-12T22:01:25.037Z,6.43
2022-11-12T22:03:53.784Z,6.72
2022-11-12T22:06:23.810Z,8.02
2022-11-12T22:08:55.100Z,5.45
2022-11-12T22:11:22.830Z,6.13
2022-11-12T22:13:52.244Z,5.78
2022-11-12T22:16:23.944Z,8.52
2022-11-12T22:18:53.585Z,6.63
2022-11-12T22:21:32.111Z,13.93
2022-11-12T22:24:03.221Z,15.38
2022-11-12T22:26:30.040Z,9.68
2022-11-12T22:29:00.464Z,7.15
2022-11-12T22:31:32.914Z,21.05
2022-11-12T22:34:01.244Z,7.78
2022-11-12T22:36:30.460Z,5.28
2022-11-12T22:38:57.720Z,7.40
2022-11-12T22:41:26.882Z,8.20
2022-11-12T22:43:59.006Z,11.57
2022-11-12T22:48:55.697Z,14.43
2022-11-12T22:51:25.364Z,15.82
2022-11-12T22:53:57.460Z,20.17
2022-11-12T22:58:53.089Z,27.75
2022-11-12T23:01:24.359Z,23.38
2022-11-12T23:03:54.048Z,24.20
2022-11-12T23:06:20.947Z,43.05
2022-11-12T23:08:48.338Z,24.83
2022-11-12T23:11:17.894Z,29.38
2022-11-12T23:13:45.061Z,33.03
2022-11-12T23:16:15.344Z,29.65
2022-11-12T23:18:42.940Z,28.15
2022-11-12T23:21:15.620Z,36.97
2022-11-12T23:23:43.258Z,28.70
2022-11-12T23:26:22.239Z,30.55
2022-11-12T23:28:49.588Z,28.23
2022-11-12T23:31:21.536Z,19.13
2022-11-12T23:33:51.204Z,16.98
2022-11-12T23:36:19.352Z,18.77
2022-11-12T23:38:46.269Z,12.40
2022-11-12T23:41:16.258Z,11.70
2022-11-12T23:43:44.166Z,9.25
2022-11-12T23:46:11.721Z,6.35
2022-11-12T23:48:38.524Z,7.55
2022-11-12T23:51:10.541Z,6.28
2022-11-12T23:53:38.430Z,6.45
2022-11-12T23:56:08.502Z,4.43
2022-11-12T23:58:36.258Z,1.98
